Time;durP1;ratioP1;P1;durP2;ratioP2;P2;SDS_P1;SDS_P2;PMS_P1;PMS_P2;Temp;Humidity;BMP_temperature;BMP_pressure;BME280_temperature;BME280_humidity;BME280_pressure;Samples;Min_cycle;Max_cycle;Signal;HPM_P1;HPM_P2
2022/05/26 00:01:10;;;;;;;7.55;3.70;;;;;;;15.13;68.03;100280.38;4984546;28;97804;-79
2022/05/26 00:03:38;;;;;;;5.22;4.35;;;;;;;15.14;68.22;100291.78;4976337;28;101060;-79
2022/05/26 00:06:06;;;;;;;6.30;4.28;;;;;;;15.01;68.58;100291.59;4973458;28;101426;-79
2022/05/26 00:08:32;;;;;;;7.45;4.15;;;;;;;15.03;68.47;100281.78;4977289;28;97364;-79
2022/05/26 00:10:58;;;;;;;5.35;3.45;;;;;;;14.94;68.98;100284.91;4988331;28;97683;-79
2022/05/26 00:13:25;;;;;;;12.63;4.07;;;;;;;14.83;69.65;100292.53;4977774;28;100871;-79
2022/05/26 00:15:51;;;;;;;5.03;3.90;;;;;;;14.73;69.17;100270.19;4961995;28;101765;-79
2022/05/26 00:18:16;;;;;;;10.77;4.07;;;;;;;14.97;69.18;100292.69;4993709;28;96777;-79
2022/05/26 00:20:42;;;;;;;5.10;4.00;;;;;;;14.91;69.34;100282.44;5002528;28;97116;-78
2022/05/26 00:23:07;;;;;;;5.82;3.80;;;;;;;14.88;69.05;100269.38;5006378;28;97602;-79
2022/05/26 00:25:33;;;;;;;5.28;3.60;;;;;;;15.04;68.89;100291.44;4975949;28;100959;-79
2022/05/26 00:27:59;;;;;;;4.80;3.60;;;;;;;15.08;68.51;100287.69;4978289;28;96748;-79
2022/05/26 00:30:24;;;;;;;4.18;3.40;;;;;;;15.20;68.19;100298.53;4975947;28;97135;-79
2022/05/26 00:32:50;;;;;;;4.53;3.20;;;;;;;15.16;68.50;100282.00;4975076;28;101522;-79
2022/05/26 00:35:15;;;;;;;3.92;3.15;;;;;;;15.02;68.50;100258.09;5005391;28;100909;-78
2022/05/26 00:37:42;;;;;;;5.55;3.55;;;;;;;15.20;68.78;100282.69;4960277;28;97144;-78
2022/05/26 00:40:08;;;;;;;3.08;2.78;;;;;;;15.07;68.35;100269.28;4963683;28;96836;-79
2022/05/26 00:42:34;;;;;;;4.03;3.08;;;;;;;15.28;68.42;100291.06;4973959;28;101621;-78
2022/05/26 00:44:59;;;;;;;4.32;3.30;;;;;;;15.35;68.14;100287.97;4994005;28;101342;-79
2022/05/26 00:47:28;;;;;;;5.85;3.13;;;;;;;15.38;68.05;100289.59;4981580;28;96785;-79
2022/05/26 00:49:58;;;;;;;4.47;3.00;;;;;;;15.24;68.17;100271.88;4979497;28;97248;-79
2022/05/26 00:52:30;;;;;;;4.53;2.60;;;;;;;15.43;68.16;100299.94;4977316;28;101595;-79
2022/05/26 00:54:59;;;;;;;6.22;2.80;;;;;;;15.43;67.79;100292.84;4993187;28;97668;-79
2022/05/26 00:57:33;;;;;;;3.35;2.75;;;;;;;15.34;68.35;100294.22;4995090;28;96814;-79
2022/05/26 01:00:02;;;;;;;4.32;2.90;;;;;;;15.52;67.96;100300.28;4995927;28;96749;-79
2022/05/26 01:02:34;;;;;;;5.85;4.13;;;;;;;15.50;67.56;100298.66;4994471;28;101224;-79
2022/05/26 01:05:04;;;;;;;3.15;2.70;;;;;;;15.44;67.86;100293.72;4978270;28;101263;-79
2022/05/26 01:07:31;;;;;;;5.20;2.60;;;;;;;15.50;67.58;100301.31;4994462;28;97265;-79
2022/05/26 01:09:57;;;;;;;3.97;2.40;;;;;;;15.49;67.69;100291.69;4978740;28;97096;-79
2022/05/26 01:12:23;;;;;;;5.10;2.83;;;;;;;15.62;67.64;100288.28;4979367;28;101265;-79
2022/05/26 01:14:52;;;;;;;5.75;2.70;;;;;;;15.59;67.35;100283.16;4991598;28;97283;-79
2022/05/26 01:17:20;;;;;;;3.40;2.38;;;;;;;15.60;67.29;100287.50;4981333;28;97026;-78
2022/05/26 01:20:01;;;;;;;3.22;2.70;;;;;;;15.66;67.27;100288.09;4996417;28;96976;-78
2022/05/26 01:23:04;;;;;;;3.20;2.17;;;;;;;15.67;67.12;100288.00;4994242;28;101151;-79
2022/05/26 01:25:57;;;;;;;4.85;2.78;;;;;;;15.58;67.16;100293.81;4994073;28;97486;-78
2022/05/26 01:28:47;;;;;;;5.55;2.42;;;;;;;15.56;67.41;100282.44;4968647;28;96734;-79
2022/05/26 01:31:40;;;;;;;4.63;3.17;;;;;;;15.63;66.87;100284.69;4994574;28;97153;-79
2022/05/26 01:34:28;;;;;;;6.15;2.20;;;;;;;15.58;67.09;100280.56;5001793;28;97944;-79
2022/05/26 01:36:58;;;;;;;4.47;2.78;;;;;;;15.52;67.34;100287.06;4988122;28;101153;-79
2022/05/26 01:40:01;;;;;;;2.40;2.00;;;;;;;15.54;67.00;100284.34;5005355;28;96815;-79
2022/05/26 01:42:45;;;;;;;5.70;2.85;;;;;;;15.61;67.04;100272.47;4995260;28;97319;-78
2022/05/26 01:45:29;;;;;;;5.75;2.50;;;;;;;15.38;67.04;100273.72;5020267;28;97866;-79
2022/05/26 01:48:28;;;;;;;3.83;2.67;;;;;;;15.48;66.76;100280.25;5019319;28;97840;-79
2022/05/26 01:51:02;;;;;;;7.45;2.58;;;;;;;15.44;67.11;100275.19;4987605;28;97336;-78
2022/05/26 01:53:42;;;;;;;3.25;2.50;;;;;;;15.47;66.87;100277.66;4978211;28;96957;-78
2022/05/26 01:56:19;;;;;;;4.68;2.42;;;;;;;15.45;67.13;100280.41;4969943;28;101595;-79
2022/05/26 01:59:09;;;;;;;6.55;2.72;;;;;;;15.42;66.77;100271.78;4977128;28;101112;-79
2022/05/26 02:01:42;;;;;;;6.20;2.80;;;;;;;15.32;67.16;100266.13;4988631;28;97212;-79
2022/05/26 02:04:15;;;;;;;8.32;3.05;;;;;;;15.30;66.75;100258.31;4994706;28;96872;-79
2022/05/26 02:06:52;;;;;;;4.70;2.70;;;;;;;15.28;67.38;100272.53;5019519;28;97700;-79
2022/05/26 02:09:26;;;;;;;5.75;2.83;;;;;;;15.27;67.44;100284.03;5009295;28;98142;-79
2022/05/26 02:12:09;;;;;;;5.20;2.80;;;;;;;15.25;67.20;100284.13;4994164;28;96839;-79
2022/05/26 02:14:41;;;;;;;5.10;2.60;;;;;;;15.24;67.30;100285.09;4977276;28;96895;-79
2022/05/26 02:17:11;;;;;;;3.75;2.83;;;;;;;15.26;67.69;100284.97;4989732;28;97656;-79
2022/05/26 02:19:43;;;;;;;4.23;3.00;;;;;;;15.21;67.66;100284.38;4977571;28;101609;-79
2022/05/26 02:22:34;;;;;;;5.95;3.05;;;;;;;15.18;67.84;100282.75;4973511;28;97808;-78
2022/05/26 02:25:06;;;;;;;5.10;2.45;;;;;;;15.05;67.73;100277.28;4980300;28;97022;-79
2022/05/26 02:27:33;;;;;;;6.82;2.97;;;;;;;15.10;67.55;100292.91;4973488;28;101327;-79
2022/05/26 02:30:01;;;;;;;6.82;2.90;;;;;;;15.12;67.76;100293.66;4976881;28;100978;-79
2022/05/26 02:32:38;;;;;;;4.20;2.95;;;;;;;15.15;67.60;100293.47;5005589;28;98252;-80
2022/05/26 02:35:11;;;;;;;4.10;2.60;;;;;;;15.14;67.50;100290.00;4991766;28;97121;-80
2022/05/26 02:37:37;;;;;;;6.13;2.72;;;;;;;15.12;67.44;100291.84;4991644;28;101162;-80
2022/05/26 02:40:05;;;;;;;7.18;2.85;;;;;;;15.18;67.26;100285.38;5007842;28;98032;-79
2022/05/26 02:42:30;;;;;;;5.57;2.25;;;;;;;15.16;67.07;100293.41;5009547;28;97246;-79
2022/05/26 02:44:56;;;;;;;2.85;2.38;;;;;;;15.11;67.40;100295.44;5011167;28;96826;-79
2022/05/26 02:47:41;;;;;;;7.22;2.22;;;;;;;15.09;66.94;100293.81;5002660;28;98689;-79
2022/05/26 02:50:13;;;;;;;4.65;2.45;;;;;;;15.13;67.27;100296.22;4973211;28;101395;-79
2022/05/26 02:52:39;;;;;;;2.95;2.00;;;;;;;15.15;67.19;100291.72;5028886;28;97135;-79
2022/05/26 02:55:17;;;;;;;4.55;2.53;;;;;;;15.13;67.06;100290.09;4998250;28;97199;-79
2022/05/26 02:57:50;;;;;;;4.68;2.05;;;;;;;15.14;66.88;100297.06;5007721;28;101764;-79
2022/05/26 03:00:18;;;;;;;5.22;2.40;;;;;;;15.06;66.96;100292.19;5006089;28;101748;-79
2022/05/26 03:02:43;;;;;;;4.45;2.20;;;;;;;15.06;67.00;100293.97;5002760;28;97418;-81
2022/05/26 03:05:19;;;;;;;3.28;1.80;;;;;;;15.05;66.97;100303.69;4976866;28;97397;-79
2022/05/26 03:07:49;;;;;;;3.38;2.00;;;;;;;15.10;66.44;100291.09;5010083;28;101252;-79
2022/05/26 03:10:15;;;;;;;5.40;2.33;;;;;;;15.10;66.18;100277.03;5006866;28;101664;-79
2022/05/26 03:12:41;;;;;;;7.32;2.60;;;;;;;15.13;66.21;100290.94;4981712;28;97016;-79
2022/05/26 03:15:08;;;;;;;6.10;2.25;;;;;;;15.09;66.16;100294.66;4987006;28;97227;-79
2022/05/26 03:17:34;;;;;;;3.35;2.10;;;;;;;15.10;65.92;100292.91;5000014;28;97564;-79
2022/05/26 03:20:00;;;;;;;4.70;2.20;;;;;;;15.15;66.34;100293.47;4976271;28;97484;-79
2022/05/26 03:22:26;;;;;;;2.45;2.22;;;;;;;15.13;66.03;100288.28;4976335;28;96967;-79
2022/05/26 03:24:51;;;;;;;4.93;2.30;;;;;;;15.12;65.66;100291.00;4977195;28;97113;-79
2022/05/26 03:27:17;;;;;;;6.35;2.47;;;;;;;15.08;66.04;100282.41;5000409;28;97993;-79
2022/05/26 03:29:43;;;;;;;4.80;1.90;;;;;;;15.02;65.93;100287.16;4969707;28;101234;-79
2022/05/26 03:32:09;;;;;;;3.70;2.22;;;;;;;14.98;65.71;100278.53;4996133;28;97227;-79
2022/05/26 03:42:48;;;;;;;2.90;2.28;;;;;;;15.23;65.00;100272.78;5009926;27;96977;-79
2022/05/26 03:45:16;;;;;;;5.88;2.17;;;;;;;15.39;64.79;100289.53;5006249;28;97497;-79
2022/05/26 03:47:42;;;;;;;5.00;2.10;;;;;;;15.44;64.29;100280.47;5001436;28;101399;-79
2022/05/26 03:50:08;;;;;;;2.63;1.95;;;;;;;15.61;63.95;100294.47;5009120;28;101469;-80
2022/05/26 03:52:33;;;;;;;3.17;2.10;;;;;;;15.61;63.91;100288.34;5005208;28;97326;-79
2022/05/26 03:54:59;;;;;;;3.33;2.15;;;;;;;15.67;63.06;100288.00;4986229;28;96842;-80
2022/05/26 03:57:27;;;;;;;3.70;1.73;;;;;;;15.63;63.03;100276.75;4993385;28;101643;-79
2022/05/26 03:59:52;;;;;;;4.82;1.85;;;;;;;15.84;62.58;100289.75;4959898;28;101529;-79
2022/05/26 04:02:18;;;;;;;5.50;1.77;;;;;;;15.84;62.19;100290.59;4994914;28;96784;-79
2022/05/26 04:04:44;;;;;;;3.22;1.90;;;;;;;16.03;62.53;100306.31;5001355;28;96992;-79
2022/05/26 04:07:11;;;;;;;4.03;1.80;;;;;;;16.03;62.04;100306.31;4988639;28;101419;-79
2022/05/26 04:09:36;;;;;;;4.97;1.88;;;;;;;16.03;61.42;100306.31;4971565;28;101066;-80
2022/05/26 04:12:04;;;;;;;6.50;2.00;;;;;;;16.13;61.36;100296.03;4975627;28;96974;-79
2022/05/26 04:14:31;;;;;;;6.85;2.55;;;;;;;16.19;61.02;100300.97;4986619;28;97812;-79
2022/05/26 04:17:00;;;;;;;7.45;2.05;;;;;;;16.24;60.59;100298.91;5003533;28;97744;-79
2022/05/26 04:19:26;;;;;;;7.60;2.05;;;;;;;16.37;60.00;100298.19;4995290;28;101505;-79
2022/05/26 04:24:36;;;;;;;4.60;2.15;;;;;;;16.30;59.68;100295.06;4982235;28;97367;-80
2022/05/26 04:27:01;;;;;;;4.38;1.77;;;;;;;16.49;59.41;100289.53;4979683;28;101224;-79
2022/05/26 04:29:28;;;;;;;3.35;1.63;;;;;;;16.75;58.78;100301.22;4986264;28;101289;-80
2022/05/26 04:31:53;;;;;;;4.45;1.83;;;;;;;16.59;58.46;100271.28;4979304;28;96756;-80
2022/05/26 04:34:19;;;;;;;4.82;1.48;;;;;;;16.64;58.65;100301.88;5004539;28;96704;-79
2022/05/26 04:36:45;;;;;;;6.32;1.58;;;;;;;16.65;58.16;100303.56;5002723;28;101406;-79
2022/05/26 04:39:11;;;;;;;2.88;1.85;;;;;;;16.98;57.44;100300.72;4975818;28;97841;-79
2022/05/26 04:41:36;;;;;;;4.78;2.13;;;;;;;17.20;56.82;100291.47;4978872;28;97220;-80
2022/05/26 04:44:02;;;;;;;3.60;1.77;;;;;;;17.39;56.68;100299.09;4966686;28;96835;-80
2022/05/26 04:46:27;;;;;;;2.50;1.52;;;;;;;17.59;56.28;100301.34;4978242;28;100436;-79
2022/05/26 04:48:53;;;;;;;3.50;1.60;;;;;;;17.79;55.94;100297.47;4989597;28;101728;-80
2022/05/26 04:51:19;;;;;;;9.15;1.77;;;;;;;17.90;54.83;100299.44;4989217;28;96877;-79
2022/05/26 04:53:45;;;;;;;3.15;1.73;;;;;;;18.09;54.49;100291.97;4979838;28;96761;-79
2022/05/26 04:56:11;;;;;;;3.42;1.77;;;;;;;18.28;54.01;100288.94;4989552;28;101337;-79
2022/05/26 04:58:36;;;;;;;3.80;1.80;;;;;;;18.60;53.66;100296.56;4992954;28;101303;-79
2022/05/26 05:01:22;;;;;;;2.95;1.90;;;;;;;18.84;52.81;100307.34;5012331;28;96780;-79
2022/05/26 05:03:48;;;;;;;5.15;2.03;;;;;;;18.67;53.24;100257.09;4964097;28;97029;-79
2022/05/26 05:06:15;;;;;;;4.32;1.60;;;;;;;18.96;53.21;100303.84;4994789;28;97513;-79
2022/05/26 05:08:41;;;;;;;3.60;1.70;;;;;;;18.75;53.28;100300.84;4984899;28;97162;-79
2022/05/26 05:11:07;;;;;;;5.63;1.90;;;;;;;18.72;53.04;100306.34;5012119;28;97360;-80
2022/05/26 05:13:33;;;;;;;4.90;2.10;;;;;;;18.67;53.23;100307.63;4976710;28;96942;-81
2022/05/26 05:16:23;;;;;;;7.10;2.03;;;;;;;18.64;52.98;100308.66;4970530;28;101679;-80
2022/05/26 05:18:50;;;;;;;3.65;1.75;;;;;;;18.59;53.00;100304.63;4971502;28;101159;-81
2022/05/26 05:21:19;;;;;;;4.60;1.80;;;;;;;18.50;53.34;100316.72;4995017;28;98150;-81
2022/05/26 05:23:47;;;;;;;4.78;1.70;;;;;;;18.43;53.39;100315.44;4978673;28;96906;-80
2022/05/26 05:26:17;;;;;;;2.28;1.30;;;;;;;18.36;53.75;100298.22;4978222;28;99927;-76
2022/05/26 05:28:56;;;;;;;3.33;1.88;;;;;;;18.25;53.43;100299.78;4978868;28;97979;-77
2022/05/26 05:31:29;;;;;;;3.03;1.33;;;;;;;18.30;53.77;100324.25;4992161;28;97243;-76
2022/05/26 05:33:59;;;;;;;3.95;1.80;;;;;;;18.16;53.82;100320.78;4963114;28;97410;-75
2022/05/26 05:36:27;;;;;;;2.30;1.35;;;;;;;18.23;54.17;100325.56;4986834;28;99884;-79
2022/05/26 05:38:53;;;;;;;3.88;1.42;;;;;;;18.26;54.06;100324.53;4967804;28;100906;-76
2022/05/26 05:41:20;;;;;;;1.98;1.40;;;;;;;18.00;54.17;100286.41;5007910;28;96789;-76
2022/05/26 05:43:47;;;;;;;3.38;1.55;;;;;;;18.22;53.93;100323.88;4982401;28;96823;-75
2022/05/26 05:46:14;;;;;;;5.45;1.50;;;;;;;18.23;53.84;100327.38;4981417;28;101459;-79
2022/05/26 05:48:43;;;;;;;3.72;1.70;;;;;;;18.04;53.75;100296.72;4961820;28;101454;-80
2022/05/26 05:51:10;;;;;;;6.10;2.03;;;;;;;18.23;54.28;100322.06;4978093;28;96688;-80
2022/05/26 05:53:36;;;;;;;2.60;1.73;;;;;;;18.09;54.27;100310.56;4959089;28;97077;-82
2022/05/26 05:56:01;;;;;;;2.90;1.70;;;;;;;18.16;54.13;100313.66;4958008;28;100316;-80
2022/05/26 05:58:26;;;;;;;4.65;1.60;;;;;;;18.09;54.04;100307.03;4957871;28;98269;-81
2022/05/26 06:00:52;;;;;;;2.30;1.60;;;;;;;18.22;54.28;100321.22;4976038;28;97051;-81
2022/05/26 06:03:18;;;;;;;4.72;1.50;;;;;;;18.31;54.54;100325.94;4970314;28;97181;-81
2022/05/26 06:05:44;;;;;;;2.40;1.52;;;;;;;18.27;54.31;100331.56;4983251;28;101267;-82
2022/05/26 06:08:10;;;;;;;7.25;1.70;;;;;;;18.13;54.26;100316.53;4984787;28;101061;-82
2022/05/26 06:10:36;;;;;;;3.83;1.80;;;;;;;18.26;54.23;100335.16;4988645;28;96658;-81
2022/05/26 06:13:02;;;;;;;2.85;1.60;;;;;;;18.25;54.05;100338.78;4990504;28;97036;-82
2022/05/26 06:15:28;;;;;;;2.70;1.50;;;;;;;18.24;54.48;100339.75;4984866;28;101720;-81
2022/05/26 06:17:54;;;;;;;4.82;1.88;;;;;;;18.18;54.56;100333.03;4984370;28;102129;-81
2022/05/26 06:20:20;;;;;;;3.53;1.35;;;;;;;18.21;55.07;100340.78;4964315;28;97416;-81
2022/05/26 06:22:46;;;;;;;2.40;1.60;;;;;;;18.14;54.85;100322.69;4960910;28;97263;-81
2022/05/26 06:25:14;;;;;;;3.67;1.55;;;;;;;18.35;54.53;100349.66;4972576;28;100039;-80
2022/05/26 06:30:26;;;;;;;4.05;1.65;;;;;;;18.53;54.04;100341.31;4995562;28;97177;-81
2022/05/26 06:38:28;;;;;;;2.78;1.52;;;;;;;19.04;53.24;100342.38;4995781;28;101533;-81
2022/05/26 06:40:54;;;;;;;2.63;1.67;;;;;;;19.24;52.79;100341.84;4977781;28;97249;-81
2022/05/26 06:43:19;;;;;;;3.42;1.73;;;;;;;19.43;52.00;100341.38;4977017;28;97222;-80
2022/05/26 06:45:46;;;;;;;5.78;2.00;;;;;;;19.44;51.76;100335.13;4993434;28;101431;-81
2022/05/26 06:48:12;;;;;;;7.53;1.70;;;;;;;19.78;51.71;100344.25;4976724;28;101322;-81
2022/05/26 06:50:39;;;;;;;3.58;1.50;;;;;;;19.98;50.91;100342.78;4976990;28;96931;-81
2022/05/26 06:53:05;;;;;;;2.38;1.40;;;;;;;19.79;50.13;100291.84;4977370;28;97313;-81
2022/05/26 06:55:31;;;;;;;3.70;1.40;;;;;;;20.27;49.55;100339.78;4992860;28;99081;-81
2022/05/26 06:57:56;;;;;;;4.50;2.00;;;;;;;20.44;49.26;100352.72;4976988;28;101313;-81
2022/05/26 07:00:22;;;;;;;4.45;1.70;;;;;;;20.52;48.93;100349.47;4976123;28;96841;-81
2022/05/26 07:02:48;;;;;;;4.20;1.50;;;;;;;20.85;48.75;100350.59;4961098;28;97924;-82
2022/05/26 07:05:14;;;;;;;2.17;1.23;;;;;;;20.93;48.50;100358.84;4976583;28;98041;-82
2022/05/26 07:07:40;;;;;;;2.95;1.10;;;;;;;21.16;46.90;100341.91;4985568;28;98524;-83
2022/05/26 07:10:07;;;;;;;8.15;1.40;;;;;;;21.29;45.92;100324.94;4990932;28;97218;-81
2022/05/26 07:12:32;;;;;;;2.05;1.48;;;;;;;21.36;46.12;100342.19;5006864;28;96982;-77
2022/05/26 07:14:59;;;;;;;3.22;1.20;;;;;;;21.38;45.94;100350.94;4999403;28;97091;-77
2022/05/26 07:17:25;;;;;;;1.75;1.10;;;;;;;21.44;45.85;100331.78;5001036;28;97432;-75
2022/05/26 07:19:51;;;;;;;3.97;1.17;;;;;;;21.62;45.17;100350.84;4987254;28;97262;-74
2022/05/26 07:22:17;;;;;;;4.47;1.30;;;;;;;21.63;45.15;100347.19;5003069;28;96903;-70
2022/05/26 07:24:42;;;;;;;12.40;2.45;;;;;;;21.73;45.87;100344.63;4997141;28;98804;-71
2022/05/26 07:27:08;;;;;;;11.25;2.33;;;;;;;21.64;45.67;100331.03;5001213;28;97256;-73
2022/05/26 07:29:34;;;;;;;5.15;2.08;;;;;;;21.76;45.00;100355.06;4982555;28;97887;-75
2022/05/26 07:32:01;;;;;;;2.85;1.10;;;;;;;21.92;46.03;100345.69;4983305;28;97234;-76
2022/05/26 07:34:27;;;;;;;3.45;1.10;;;;;;;22.41;44.92;100350.69;4983011;28;97891;-83
2022/05/26 07:42:23;;;;;;;8.23;1.33;;;;;;;23.13;43.22;100360.69;5000548;28;97290;-83
2022/05/26 07:44:52;;;;;;;2.40;1.00;;;;;;;23.02;42.71;100361.59;5002765;28;100479;-84
2022/05/26 07:47:18;;;;;;;3.08;1.00;;;;;;;23.13;43.43;100350.81;4970928;28;100406;-84
2022/05/26 07:49:47;;;;;;;3.95;1.00;;;;;;;23.26;42.09;100343.41;4962720;28;97332;-86
2022/05/26 07:52:14;;;;;;;3.53;1.00;;;;;;;23.61;41.57;100355.53;4972589;28;97145;-84
2022/05/26 07:54:41;;;;;;;1.55;0.93;;;;;;;23.66;40.40;100356.00;4987906;28;101650;-84
2022/05/26 07:57:11;;;;;;;3.70;1.10;;;;;;;23.65;40.79;100357.00;5008475;28;97998;-81
2022/05/26 07:59:37;;;;;;;3.95;0.88;;;;;;;23.49;40.35;100341.41;4971908;28;97497;-82
2022/05/26 08:02:03;;;;;;;2.72;1.02;;;;;;;23.56;40.91;100349.78;4996611;28;97895;-83
2022/05/26 08:04:28;;;;;;;2.13;1.05;;;;;;;23.67;41.19;100352.31;5001617;28;98039;-84
2022/05/26 08:06:54;;;;;;;3.25;1.00;;;;;;;23.80;40.55;100357.50;4989301;28;101198;-82
2022/05/26 08:09:21;;;;;;;1.45;0.80;;;;;;;23.71;39.72;100347.59;4999460;28;96809;-80
2022/05/26 08:11:47;;;;;;;1.92;1.50;;;;;;;23.88;40.00;100364.81;4994699;28;97466;-78
2022/05/26 08:14:12;;;;;;;1.42;0.95;;;;;;;24.24;39.21;100358.00;4981762;28;101805;-79
2022/05/26 08:16:38;;;;;;;1.38;0.70;;;;;;;24.00;38.94;100353.03;5009414;28;97906;-81
2022/05/26 08:19:05;;;;;;;1.30;0.90;;;;;;;24.28;38.53;100356.72;4972159;28;97117;-81
2022/05/26 08:21:30;;;;;;;0.80;0.80;;;;;;;24.23;38.09;100334.88;4982679;28;96892;-80
2022/05/26 08:23:57;;;;;;;1.85;0.90;;;;;;;24.43;37.97;100357.19;4975187;28;101347;-79
2022/05/26 08:26:23;;;;;;;2.97;1.90;;;;;;;24.39;38.20;100361.13;4983889;28;101060;-78
2022/05/26 08:28:49;;;;;;;2.83;1.63;;;;;;;24.47;37.49;100361.28;4973895;28;96851;-78
2022/05/26 08:31:15;;;;;;;4.15;2.80;;;;;;;24.66;37.04;100359.59;4986533;28;97224;-79
2022/05/26 08:33:40;;;;;;;3.20;2.90;;;;;;;24.44;37.55;100364.25;4975395;28;101325;-79
2022/05/26 08:36:13;;;;;;;5.47;4.05;;;;;;;24.55;37.01;100352.53;4975813;28;100804;-80
2022/05/26 08:38:39;;;;;;;5.50;1.30;;;;;;;24.37;36.74;100371.13;5003208;28;97211;-78
2022/05/26 08:41:06;;;;;;;4.05;1.60;;;;;;;24.94;36.75;100352.50;5004635;28;98298;-79
2022/05/26 08:43:45;;;;;;;4.97;0.80;;;;;;;25.11;36.46;100359.81;4988078;28;97567;-79
2022/05/26 08:46:17;;;;;;;5.68;0.95;;;;;;;25.66;35.83;100356.41;5003245;28;98163;-77
2022/05/26 08:48:52;;;;;;;2.35;1.05;;;;;;;25.86;35.45;100347.28;4985493;28;97623;-79
2022/05/26 08:51:49;;;;;;;3.40;1.30;;;;;;;26.48;34.69;100350.09;5002795;28;98214;-79
2022/05/26 08:54:36;;;;;;;2.25;1.00;;;;;;;26.75;34.54;100346.47;4988591;28;98597;-79
2022/05/26 08:57:03;;;;;;;2.53;0.95;;;;;;;26.59;35.08;100349.91;4983546;28;97366;-79
2022/05/26 08:59:39;;;;;;;2.42;1.10;;;;;;;26.88;34.54;100346.09;4971804;28;96933;-78
2022/05/26 09:02:05;;;;;;;5.65;0.98;;;;;;;27.25;34.65;100350.38;5008272;28;97019;-78
2022/05/26 09:04:31;;;;;;;4.22;1.17;;;;;;;27.48;34.41;100354.22;4981357;28;100720;-80
2022/05/26 09:12:56;;;;;;;5.18;0.90;;;;;;;27.51;34.50;100353.06;5002864;28;98756;-79
2022/05/26 09:15:23;;;;;;;2.90;1.17;;;;;;;27.26;34.81;100344.84;4974688;28;101377;-80
2022/05/26 09:17:48;;;;;;;2.58;1.38;;;;;;;26.85;34.20;100355.31;4991238;28;101381;-80
2022/05/26 09:20:28;;;;;;;3.45;1.25;;;;;;;26.35;34.82;100363.06;4997640;28;96790;-81
2022/05/26 09:22:53;;;;;;;6.70;1.95;;;;;;;26.25;35.40;100357.78;4976861;28;97036;-80
2022/05/26 09:25:41;;;;;;;5.65;1.60;;;;;;;26.03;35.40;100358.19;4972195;28;101816;-80
2022/05/26 09:28:09;;;;;;;5.40;1.50;;;;;;;26.45;35.11;100363.88;4985878;28;97931;-78
2022/05/26 09:30:34;;;;;;;9.05;2.03;;;;;;;26.58;34.96;100369.72;4957340;28;97309;-78
2022/05/26 09:33:01;;;;;;;9.85;2.20;;;;;;;26.51;35.20;100365.97;4982901;28;97438;-75
2022/05/26 09:35:29;;;;;;;13.20;1.88;;;;;;;26.69;34.96;100365.94;4988901;28;97927;-77
2022/05/26 09:37:58;;;;;;;6.80;1.55;;;;;;;27.09;34.28;100365.41;4982996;28;97716;-76
2022/05/26 09:40:35;;;;;;;4.50;1.70;;;;;;;26.87;35.08;100363.22;4969457;28;97943;-76
2022/05/26 09:43:03;;;;;;;6.50;1.35;;;;;;;26.91;35.09;100367.31;4982830;28;97137;-76
2022/05/26 09:45:45;;;;;;;2.38;1.00;;;;;;;26.48;35.08;100366.25;4998081;28;101875;-76
2022/05/26 09:48:32;;;;;;;3.78;1.20;;;;;;;26.45;36.02;100361.16;4968684;28;101993;-78
2022/05/26 09:51:24;;;;;;;5.35;1.23;;;;;;;26.70;34.79;100354.16;4970740;28;97817;-75
2022/05/26 09:53:52;;;;;;;3.67;0.88;;;;;;;26.48;34.75;100352.78;4967174;28;97502;-79
2022/05/26 09:56:40;;;;;;;4.53;1.63;;;;;;;26.61;35.08;100355.94;4973276;28;101396;-77
2022/05/26 09:59:33;;;;;;;9.00;1.40;;;;;;;26.74;35.09;100357.41;4982874;28;101175;-78
2022/05/26 10:02:02;;;;;;;3.47;1.20;;;;;;;26.09;36.43;100349.53;4989910;28;97327;-78
2022/05/26 10:04:50;;;;;;;4.20;1.30;;;;;;;25.85;36.70;100340.19;4994969;28;97615;-78
2022/05/26 10:07:40;;;;;;;2.83;1.05;;;;;;;25.85;36.51;100363.53;4996907;28;98009;-78
2022/05/26 10:10:19;;;;;;;6.65;0.82;;;;;;;25.69;36.34;100359.63;5009251;28;101526;-78
2022/05/26 10:13:15;;;;;;;4.22;1.30;;;;;;;25.43;36.35;100340.66;5005292;28;96848;-78
2022/05/26 10:16:06;;;;;;;2.88;0.82;;;;;;;25.52;36.42;100361.25;4996834;28;97284;-78
2022/05/26 10:18:40;;;;;;;2.55;1.17;;;;;;;25.57;36.81;100368.03;4998187;28;100990;-77
2022/05/26 10:21:12;;;;;;;3.75;0.90;;;;;;;25.53;37.04;100370.16;4972655;28;101250;-76
2022/05/26 10:24:00;;;;;;;7.47;1.20;;;;;;;25.34;36.92;100379.16;4991330;28;97130;-77
2022/05/26 10:26:57;;;;;;;6.78;0.90;;;;;;;25.24;37.16;100368.41;4996088;28;97286;-78
2022/05/26 10:29:57;;;;;;;2.55;0.82;;;;;;;25.25;37.09;100377.34;4986522;28;98071;-78
2022/05/26 10:32:23;;;;;;;5.03;0.73;;;;;;;25.12;36.79;100371.41;4997621;28;101163;-79
2022/05/26 10:35:13;;;;;;;5.75;1.15;;;;;;;25.10;36.95;100376.91;5011474;28;96839;-78
2022/05/26 10:37:42;;;;;;;7.25;0.80;;;;;;;24.95;36.83;100378.34;4985450;28;97383;-78
2022/05/26 10:40:31;;;;;;;2.20;0.80;;;;;;;24.84;36.92;100363.25;4985196;28;101341;-76
2022/05/26 10:43:15;;;;;;;4.93;1.33;;;;;;;24.72;37.67;100380.50;4988917;28;98063;-75
2022/05/26 10:45:43;;;;;;;7.32;2.50;;;;;;;24.66;37.86;100367.66;4998204;28;97169;-75
2022/05/26 10:48:31;;;;;;;11.32;3.05;;;;;;;24.54;38.01;100385.72;4972396;28;97442;-74
2022/05/26 10:51:09;;;;;;;5.30;2.15;;;;;;;24.58;37.95;100388.00;4956304;28;101376;-75
2022/05/26 10:53:47;;;;;;;6.03;2.17;;;;;;;24.54;38.41;100386.56;4985149;28;100854;-75
2022/05/26 10:56:19;;;;;;;9.00;1.85;;;;;;;24.61;38.42;100382.34;4969547;28;97597;-75
2022/05/26 10:58:52;;;;;;;14.05;4.47;;;;;;;24.68;38.77;100379.09;4990518;28;97348;-75
2022/05/26 11:01:45;;;;;;;15.73;5.70;;;;;;;24.69;38.65;100378.94;4969662;28;99306;-75
2022/05/26 11:04:34;;;;;;;9.90;4.28;;;;;;;24.51;38.63;100391.38;4992449;28;97592;-77
2022/05/26 11:07:04;;;;;;;9.90;3.20;;;;;;;24.38;39.41;100375.53;4993106;28;96720;-75
2022/05/26 11:09:52;;;;;;;6.45;2.53;;;;;;;24.52;39.05;100385.88;4995824;28;97483;-75
2022/05/26 11:12:25;;;;;;;7.05;1.88;;;;;;;24.34;38.72;100391.03;4999859;28;101838;-75
2022/05/26 11:17:45;;;;;;;4.32;1.90;;;;;;;24.10;39.13;100364.59;5002090;28;96705;-75
2022/05/26 11:20:34;;;;;;;6.15;1.25;;;;;;;24.22;39.44;100394.81;4992315;28;98089;-75
2022/05/26 11:23:04;;;;;;;4.40;1.52;;;;;;;24.27;39.17;100394.44;4970519;28;101060;-76
2022/05/26 11:25:51;;;;;;;4.53;1.73;;;;;;;24.22;38.70;100389.47;5000215;28;97358;-74
2022/05/26 11:28:23;;;;;;;4.38;1.48;;;;;;;24.21;38.69;100389.63;5016989;28;97569;-75
2022/05/26 11:36:53;;;;;;;3.38;1.40;;;;;;;24.21;39.02;100378.88;5002829;28;97930;-75
2022/05/26 11:39:28;;;;;;;4.25;1.00;;;;;;;24.00;38.42;100384.31;4991483;28;97267;-74
2022/05/26 11:41:55;;;;;;;3.00;0.80;;;;;;;24.07;38.65;100399.75;4993258;28;97387;-75
2022/05/26 11:44:37;;;;;;;4.05;0.93;;;;;;;24.05;38.99;100384.78;4979760;28;98005;-75
2022/05/26 11:47:31;;;;;;;5.35;0.90;;;;;;;23.90;38.50;100390.50;4973992;28;98131;-75
2022/05/26 11:49:56;;;;;;;2.45;1.00;;;;;;;23.91;38.24;100386.00;4984728;28;97220;-74
2022/05/26 11:52:34;;;;;;;3.08;1.48;;;;;;;23.96;37.66;100394.47;4988940;28;97167;-73
2022/05/26 11:55:02;;;;;;;2.67;0.90;;;;;;;24.06;37.91;100389.16;4990518;28;101203;-75
2022/05/26 11:57:35;;;;;;;4.63;1.42;;;;;;;24.15;37.38;100373.09;4999515;28;101246;-75
2022/05/26 12:00:16;;;;;;;6.32;0.88;;;;;;;24.13;37.52;100379.56;4998760;28;97438;-75
2022/05/26 12:02:51;;;;;;;5.97;1.13;;;;;;;24.21;38.01;100382.41;5005913;28;96985;-75
2022/05/26 12:05:44;;;;;;;6.30;1.63;;;;;;;24.06;38.13;100384.66;4970128;28;100969;-74
2022/05/26 12:08:24;;;;;;;6.32;0.98;;;;;;;24.13;37.75;100375.06;5000814;28;98235;-77
2022/05/26 12:10:56;;;;;;;1.42;0.85;;;;;;;24.05;37.61;100363.31;4996229;28;97281;-76
2022/05/26 12:13:27;;;;;;;1.42;0.82;;;;;;;24.16;37.90;100374.78;5012299;28;97420;-73
2022/05/26 12:16:06;;;;;;;2.85;0.98;;;;;;;24.16;37.48;100371.25;4986543;28;99635;-76
2022/05/26 12:18:39;;;;;;;3.88;0.70;;;;;;;24.01;37.81;100357.41;4976836;28;101193;-76
2022/05/26 12:21:21;;;;;;;1.27;0.80;;;;;;;24.09;37.75;100372.81;4977407;28;97380;-73